AFR27QN LFPG-LFMN
Flight info
| Callsign | AFR27QN |
|---|---|
| Flight time | N/A |
| Altitude | 37000 |
| Route | LATRA DCT LAMUT DCT UTUVA DCT LERGA DCT LIQID DCT LATAM DCT TUNUR DCT NISAR |
| Aircraft | A20N/M-SDE2E3FGHIRWXY/LB1 |
Departure
| Time | N/A |
|---|---|
| Airport | Charles de Gaulle International Airport (LFPG) |
Arrival
| Time | 2026-05-01 14:06 |
|---|---|
| Airport | Nice-Côte d'Azur Airport (LFMN) |
| Time | Latitude | Longitude | Altitude | Speed | Heading |
|---|---|---|---|---|---|
| 2026-05-01 13:26 | 46.20821 | 3.35356 | 35197 ft | 430 kts | 167° |
| 2026-05-01 13:27 | 46.17939 | 3.36506 | 35200 ft | 430 kts | 167° |
| 2026-05-01 13:27 | 46.09289 | 3.39951 | 35206 ft | 431 kts | 167° |
| 2026-05-01 13:28 | 46.00647 | 3.43383 | 35198 ft | 431 kts | 167° |
| 2026-05-01 13:29 | 45.89116 | 3.47943 | 35209 ft | 431 kts | 167° |
| 2026-05-01 13:31 | 45.71878 | 3.55255 | 35212 ft | 432 kts | 166° |
| 2026-05-01 13:32 | 45.57545 | 3.61413 | 35226 ft | 431 kts | 166° |
| 2026-05-01 13:33 | 45.43225 | 3.67529 | 35231 ft | 431 kts | 166° |
| 2026-05-01 13:34 | 45.31800 | 3.72602 | 35232 ft | 433 kts | 159° |
| 2026-05-01 13:35 | 45.26576 | 3.76868 | 35246 ft | 438 kts | 145° |
| 2026-05-01 13:35 | 45.24253 | 3.79686 | 35241 ft | 440 kts | 137° |
| 2026-05-01 13:35 | 45.20415 | 3.86426 | 35254 ft | 443 kts | 125° |
| 2026-05-01 13:36 | 45.18773 | 3.90064 | 35245 ft | 443 kts | 124° |
| 2026-05-01 13:36 | 45.13915 | 4.00886 | 35236 ft | 442 kts | 124° |
| 2026-05-01 13:37 | 45.11133 | 4.06970 | 35235 ft | 443 kts | 124° |
| 2026-05-01 13:37 | 45.07216 | 4.15505 | 35225 ft | 444 kts | 124° |
| 2026-05-01 13:38 | 45.01857 | 4.26120 | 35234 ft | 443 kts | 132° |
| 2026-05-01 13:39 | 44.97756 | 4.32512 | 35234 ft | 443 kts | 134° |
| 2026-05-01 13:39 | 44.93595 | 4.38890 | 35234 ft | 442 kts | 134° |
| 2026-05-01 13:40 | 44.89448 | 4.45244 | 35231 ft | 442 kts | 134° |
| 2026-05-01 13:40 | 44.85270 | 4.51635 | 35229 ft | 442 kts | 134° |
| 2026-05-01 13:41 | 44.81113 | 4.57983 | 35227 ft | 443 kts | 134° |
| 2026-05-01 13:41 | 44.76940 | 4.64342 | 35222 ft | 443 kts | 134° |
| 2026-05-01 13:42 | 44.72758 | 4.70701 | 35215 ft | 444 kts | 134° |
| 2026-05-01 13:42 | 44.68597 | 4.77017 | 35205 ft | 444 kts | 134° |
| 2026-05-01 13:43 | 44.64401 | 4.83366 | 35209 ft | 444 kts | 134° |
| 2026-05-01 13:43 | 44.60305 | 4.89815 | 35216 ft | 445 kts | 132° |
| 2026-05-01 13:44 | 44.56262 | 4.96324 | 35222 ft | 445 kts | 132° |
| 2026-05-01 13:44 | 44.52169 | 5.02865 | 34852 ft | 447 kts | 132° |
| 2026-05-01 13:44 | 44.50135 | 5.06101 | 34267 ft | 445 kts | 132° |
| 2026-05-01 13:45 | 44.48110 | 5.09320 | 33902 ft | 437 kts | 132° |
| 2026-05-01 13:45 | 44.44109 | 5.15674 | 33912 ft | 437 kts | 132° |
| 2026-05-01 13:45 | 44.42086 | 5.18880 | 33746 ft | 439 kts | 132° |
| 2026-05-01 13:46 | 44.40074 | 5.22060 | 33102 ft | 441 kts | 133° |
| 2026-05-01 13:46 | 44.37967 | 5.25150 | 32441 ft | 442 kts | 136° |
| 2026-05-01 13:46 | 44.35716 | 5.28069 | 31854 ft | 439 kts | 140° |
| 2026-05-01 13:46 | 44.33385 | 5.30739 | 31602 ft | 441 kts | 142° |
| 2026-05-01 13:47 | 44.15309 | 5.50358 | 27699 ft | 440 kts | 142° |
| 2026-05-01 13:47 | 43.88477 | 5.79240 | 23393 ft | 430 kts | 142° |
| 2026-05-01 13:47 | 43.86138 | 5.81771 | 22853 ft | 423 kts | 142° |
| 2026-05-01 13:47 | 43.80858 | 5.87454 | 21620 ft | 409 kts | 142° |
| 2026-05-01 13:48 | 43.78646 | 5.89803 | 20953 ft | 389 kts | 142° |
| 2026-05-01 13:48 | 43.76560 | 5.92021 | 20305 ft | 371 kts | 141° |
| 2026-05-01 13:48 | 43.74718 | 5.93983 | 19744 ft | 357 kts | 141° |
| 2026-05-01 13:48 | 43.72781 | 5.96047 | 19224 ft | 346 kts | 141° |
| 2026-05-01 13:49 | 43.70890 | 5.98060 | 18776 ft | 338 kts | 141° |
| 2026-05-01 13:49 | 43.69033 | 6.00037 | 18382 ft | 338 kts | 141° |
| 2026-05-01 13:49 | 43.67197 | 6.02092 | 18129 ft | 343 kts | 134° |
| 2026-05-01 13:49 | 43.65925 | 6.04819 | 17600 ft | 340 kts | 109° |
| 2026-05-01 13:50 | 43.65261 | 6.07933 | 17228 ft | 337 kts | 104° |
| 2026-05-01 13:50 | 43.64669 | 6.11027 | 16874 ft | 335 kts | 104° |
| 2026-05-01 13:50 | 43.64054 | 6.14126 | 16551 ft | 335 kts | 105° |
| 2026-05-01 13:50 | 43.63421 | 6.17165 | 16159 ft | 333 kts | 106° |
| 2026-05-01 13:51 | 43.62765 | 6.20213 | 15743 ft | 331 kts | 106° |
| 2026-05-01 13:51 | 43.62094 | 6.23267 | 15308 ft | 330 kts | 106° |
| 2026-05-01 13:51 | 43.61422 | 6.26283 | 14865 ft | 329 kts | 107° |
| 2026-05-01 13:51 | 43.60755 | 6.29252 | 14421 ft | 327 kts | 107° |
| 2026-05-01 13:52 | 43.60075 | 6.32253 | 13978 ft | 325 kts | 107° |
| 2026-05-01 13:52 | 43.59410 | 6.35175 | 13558 ft | 324 kts | 107° |
| 2026-05-01 13:52 | 43.58732 | 6.38151 | 13119 ft | 322 kts | 107° |
| 2026-05-01 13:52 | 43.58063 | 6.41079 | 12701 ft | 321 kts | 106° |
| 2026-05-01 13:53 | 43.57400 | 6.43973 | 12259 ft | 320 kts | 106° |
| 2026-05-01 13:53 | 43.56059 | 6.49820 | 11355 ft | 319 kts | 106° |
| 2026-05-01 13:53 | 43.55391 | 6.52724 | 10920 ft | 317 kts | 106° |
| 2026-05-01 13:54 | 43.54736 | 6.55568 | 10509 ft | 315 kts | 106° |
| 2026-05-01 13:54 | 43.54076 | 6.58431 | 10142 ft | 311 kts | 106° |
| 2026-05-01 13:54 | 43.53430 | 6.61228 | 10038 ft | 297 kts | 105° |
| 2026-05-01 13:54 | 43.52828 | 6.63838 | 9819 ft | 280 kts | 105° |
| 2026-05-01 13:55 | 43.52247 | 6.66362 | 9527 ft | 274 kts | 106° |
| 2026-05-01 13:55 | 43.51672 | 6.68858 | 9228 ft | 271 kts | 106° |
| 2026-05-01 13:55 | 43.51109 | 6.71303 | 8909 ft | 269 kts | 106° |
| 2026-05-01 13:55 | 43.50542 | 6.73755 | 8580 ft | 268 kts | 106° |
| 2026-05-01 13:56 | 43.49984 | 6.76164 | 8253 ft | 266 kts | 106° |
| 2026-05-01 13:56 | 43.49419 | 6.78600 | 7954 ft | 265 kts | 106° |
| 2026-05-01 13:56 | 43.48865 | 6.80983 | 7647 ft | 264 kts | 106° |
| 2026-05-01 13:56 | 43.48309 | 6.83371 | 7346 ft | 264 kts | 106° |
| 2026-05-01 13:57 | 43.47740 | 6.85807 | 7268 ft | 268 kts | 106° |
| 2026-05-01 13:57 | 43.47356 | 6.87445 | 7223 ft | 265 kts | 106° |
| 2026-05-01 13:57 | 43.46622 | 6.90581 | 6484 ft | 261 kts | 106° |
| 2026-05-01 13:57 | 43.46077 | 6.92910 | 6085 ft | 250 kts | 106° |
| 2026-05-01 13:58 | 43.45548 | 6.95163 | 5764 ft | 244 kts | 106° |
| 2026-05-01 13:58 | 43.45033 | 6.97367 | 5459 ft | 243 kts | 106° |
| 2026-05-01 13:58 | 43.44524 | 6.99546 | 5248 ft | 236 kts | 106° |
| 2026-05-01 13:58 | 43.44031 | 7.01638 | 5225 ft | 221 kts | 105° |
| 2026-05-01 13:59 | 43.43569 | 7.03605 | 5202 ft | 214 kts | 105° |
| 2026-05-01 13:59 | 43.43111 | 7.05559 | 5170 ft | 214 kts | 105° |
| 2026-05-01 13:59 | 43.42660 | 7.07483 | 5129 ft | 214 kts | 105° |
| 2026-05-01 13:59 | 43.42204 | 7.09424 | 4994 ft | 213 kts | 105° |
| 2026-05-01 14:00 | 43.42011 | 7.11406 | 4797 ft | 211 kts | 75° |
| 2026-05-01 14:00 | 43.42791 | 7.13073 | 4684 ft | 213 kts | 39° |
| 2026-05-01 14:00 | 43.44019 | 7.14250 | 4401 ft | 217 kts | 36° |
| 2026-05-01 14:00 | 43.45254 | 7.15452 | 4080 ft | 217 kts | 39° |
| 2026-05-01 14:01 | 43.46497 | 7.16595 | 3778 ft | 219 kts | 25° |
| 2026-05-01 14:01 | 43.48000 | 7.16843 | 3502 ft | 224 kts | 356° |
| 2026-05-01 14:01 | 43.49555 | 7.16465 | 3210 ft | 225 kts | 353° |
| 2026-05-01 14:01 | 43.51065 | 7.16093 | 2915 ft | 218 kts | 355° |
| 2026-05-01 14:02 | 43.52532 | 7.15821 | 2629 ft | 208 kts | 357° |
| 2026-05-01 14:02 | 43.53915 | 7.15624 | 2439 ft | 192 kts | 358° |
| 2026-05-01 14:02 | 43.55190 | 7.15470 | 2183 ft | 174 kts | 359° |
| 2026-05-01 14:02 | 43.56343 | 7.15354 | 1912 ft | 158 kts | 2° |
| 2026-05-01 14:03 | 43.57367 | 7.15285 | 1722 ft | 142 kts | 0° |
| 2026-05-01 14:03 | 43.58320 | 7.15185 | 1442 ft | 137 kts | 359° |
| 2026-05-01 14:03 | 43.59270 | 7.15081 | 1143 ft | 135 kts | 359° |
| 2026-05-01 14:03 | 43.60201 | 7.15046 | 988 ft | 133 kts | 7° |
| 2026-05-01 14:04 | 43.61111 | 7.15252 | 929 ft | 132 kts | 22° |
| 2026-05-01 14:04 | 43.61905 | 7.15874 | 913 ft | 132 kts | 45° |
| 2026-05-01 14:04 | 43.62567 | 7.16778 | 901 ft | 134 kts | 46° |
| 2026-05-01 14:04 | 43.63001 | 7.17381 | 761 ft | 136 kts | 48° |
| 2026-05-01 14:05 | 43.63876 | 7.18618 | 403 ft | 133 kts | 46° |
| 2026-05-01 14:05 | 43.64534 | 7.19517 | 232 ft | 133 kts | 46° |
| 2026-05-01 14:05 | 43.65185 | 7.20405 | 77 ft | 132 kts | 46° |
| 2026-05-01 14:05 | 43.65800 | 7.21256 | 26 ft | 112 kts | 46° |
| 2026-05-01 14:06 | 43.66236 | 7.21859 | 26 ft | 62 kts | 43° |
| 2026-05-01 14:06 | 43.66439 | 7.22123 | 26 ft | 29 kts | 32° |
| 2026-05-01 14:06 | 43.66534 | 7.22052 | 26 ft | 14 kts | 316° |
| 2026-05-01 14:06 | 43.66605 | 7.21956 | 27 ft | 14 kts | 314° |
| 2026-05-01 14:07 | 43.66644 | 7.21895 | 27 ft | 8 kts | 304° |
| 2026-05-01 14:07 | 43.66637 | 7.21821 | 27 ft | 9 kts | 217° |
| 2026-05-01 14:07 | 43.66582 | 7.21768 | 27 ft | 10 kts | 219° |
| 2026-05-01 14:08 | 43.66472 | 7.21621 | 27 ft | 11 kts | 224° |
| 2026-05-01 14:08 | 43.66414 | 7.21538 | 28 ft | 12 kts | 224° |
| 2026-05-01 14:08 | 43.66350 | 7.21447 | 28 ft | 13 kts | 226° |
| 2026-05-01 14:08 | 43.66285 | 7.21349 | 28 ft | 14 kts | 228° |
| 2026-05-01 14:09 | 43.66215 | 7.21249 | 28 ft | 14 kts | 224° |
| 2026-05-01 14:09 | 43.66140 | 7.21145 | 28 ft | 15 kts | 226° |
| 2026-05-01 14:09 | 43.66064 | 7.21035 | 28 ft | 16 kts | 225° |
| 2026-05-01 14:09 | 43.65982 | 7.20926 | 28 ft | 16 kts | 224° |
| 2026-05-01 14:10 | 43.65904 | 7.20817 | 28 ft | 5 kts | 224° |
| 2026-05-01 14:10 | 43.65895 | 7.20799 | 28 ft | 0 kts | 270° |
| 2026-05-01 14:10 | 43.65904 | 7.20771 | 28 ft | 3 kts | 291° |
| 2026-05-01 14:10 | 43.65915 | 7.20732 | 28 ft | 4 kts | 291° |
| 2026-05-01 14:11 | 43.65925 | 7.20696 | 29 ft | 0 kts | 291° |